Time;durP1;ratioP1;P1;durP2;ratioP2;P2;SDS_P1;SDS_P2;PMS_P1;PMS_P2;Temp;Humidity;BMP_temperature;BMP_pressure;BME280_temperature;BME280_humidity;BME280_pressure;Samples;Min_cycle;Max_cycle;Signal;HPM_P1;HPM_P2
2023/03/04 00:01:12;;;;;;;9.63;4.83;;;0.10;99.90;;;;;;5020749;28;20248;-81
2023/03/04 00:03:38;;;;;;;6.53;3.27;;;0.30;99.90;;;;;;5037221;28;20257;-81
2023/03/04 00:06:04;;;;;;;11.00;6.77;;;0.20;99.90;;;;;;5037225;28;20183;-81
2023/03/04 00:08:30;;;;;;;8.27;4.73;;;0.10;99.90;;;;;;5037512;28;20184;-81
2023/03/04 00:10:55;;;;;;;10.57;4.90;;;0.10;99.90;;;;;;5055566;28;20247;-81
2023/03/04 00:13:21;;;;;;;9.50;4.90;;;0.10;99.90;;;;;;5055797;28;20240;-81
2023/03/04 00:15:47;;;;;;;9.13;4.73;;;0.10;99.90;;;;;;5055154;28;20644;-84
2023/03/04 00:18:13;;;;;;;4.73;4.27;;;0.00;99.90;;;;;;5036987;28;20180;-81
2023/03/04 00:20:39;;;;;;;5.87;4.43;;;0.00;99.90;;;;;;5054720;28;20632;-83
2023/03/04 00:23:04;;;;;;;12.47;5.93;;;0.00;99.90;;;;;;5054823;28;20665;-82
2023/03/04 00:25:30;;;;;;;12.33;5.90;;;0.00;99.90;;;;;;5036462;28;20583;-83
2023/03/04 00:27:57;;;;;;;11.10;3.67;;;-0.10;99.90;;;;;;5037290;28;20191;-83
2023/03/04 00:30:23;;;;;;;12.47;8.03;;;0.00;99.90;;;;;;5037706;28;20266;-82
2023/03/04 00:32:48;;;;;;;15.77;7.93;;;-0.10;99.90;;;;;;5036924;28;20782;-83
2023/03/04 00:35:14;;;;;;;9.40;5.00;;;-0.10;99.90;;;;;;5054715;28;20176;-82
2023/03/04 00:37:40;;;;;;;20.73;5.80;;;-0.10;99.90;;;;;;5054658;28;20521;-82
2023/03/04 00:40:07;;;;;;;5.73;4.73;;;0.00;99.90;;;;;;5020403;28;20213;-82
2023/03/04 00:42:33;;;;;;;17.63;6.57;;;-0.10;99.90;;;;;;5054700;28;20253;-82
2023/03/04 00:44:58;;;;;;;9.33;5.13;;;0.00;99.90;;;;;;5036324;28;20651;-82
2023/03/04 00:47:24;;;;;;;9.97;4.60;;;0.00;99.90;;;;;;5036660;28;20269;-81
2023/03/04 00:49:49;;;;;;;13.67;6.40;;;0.00;99.90;;;;;;5036640;28;20202;-82
2023/03/04 00:52:15;;;;;;;11.43;6.53;;;0.10;99.90;;;;;;5053998;28;20214;-81
2023/03/04 00:54:41;;;;;;;16.30;4.97;;;0.00;99.90;;;;;;5036307;28;20180;-82
2023/03/04 00:57:06;;;;;;;18.73;4.70;;;0.00;99.90;;;;;;5054299;28;20533;-81
2023/03/04 00:59:32;;;;;;;7.03;5.30;;;0.00;99.90;;;;;;5036035;28;20599;-82
2023/03/04 01:01:58;;;;;;;6.80;4.73;;;0.00;99.90;;;;;;5054078;28;20596;-82
2023/03/04 01:04:23;;;;;;;9.00;5.17;;;0.00;99.90;;;;;;5036209;28;20549;-82
2023/03/04 01:06:49;;;;;;;15.70;4.77;;;0.00;99.90;;;;;;5036139;28;20644;-82
2023/03/04 01:09:15;;;;;;;16.03;7.23;;;0.00;99.90;;;;;;5035858;28;20184;-82
2023/03/04 01:11:40;;;;;;;18.97;8.37;;;0.00;99.90;;;;;;5036309;28;20191;-83
2023/03/04 01:14:06;;;;;;;14.90;6.93;;;0.00;99.90;;;;;;5053714;28;20243;-82
2023/03/04 01:16:32;;;;;;;12.67;6.67;;;0.00;99.90;;;;;;5073688;28;20228;-82
2023/03/04 01:18:58;;;;;;;16.53;7.47;;;0.00;99.90;;;;;;5073802;28;20179;-81
2023/03/04 01:21:23;;;;;;;11.10;5.33;;;0.00;99.90;;;;;;5073525;28;20186;-82
2023/03/04 01:23:49;;;;;;;18.00;5.37;;;0.00;99.90;;;;;;5072275;28;20229;-81
2023/03/04 01:26:15;;;;;;;21.70;6.97;;;-0.10;99.90;;;;;;5073758;28;20175;-86
2023/03/04 01:28:40;;;;;;;20.30;6.30;;;0.00;99.90;;;;;;5073827;28;20183;-82
2023/03/04 01:31:06;;;;;;;14.23;4.67;;;0.10;99.90;;;;;;5039117;28;20191;-82
2023/03/04 01:33:32;;;;;;;9.67;5.87;;;0.10;99.90;;;;;;5072043;28;20888;-83
2023/03/04 01:35:58;;;;;;;4.10;3.70;;;0.10;99.90;;;;;;5073515;28;20273;-82
2023/03/04 01:38:23;;;;;;;13.23;5.23;;;0.00;99.90;;;;;;5073112;28;20182;-83
2023/03/04 01:40:50;;;;;;;10.67;5.33;;;0.10;99.90;;;;;;5073503;28;20262;-83
2023/03/04 01:43:28;;;;;;;12.27;4.97;;;0.10;99.90;;;;;;5073378;28;20179;-82
2023/03/04 01:45:55;;;;;;;7.60;3.93;;;0.00;99.90;;;;;;5072074;28;20179;-82
2023/03/04 01:48:25;;;;;;;3.53;3.23;;;0.00;99.90;;;;;;5073316;28;20612;-82
2023/03/04 01:50:51;;;;;;;3.23;2.50;;;0.00;99.90;;;;;;5073051;28;20175;-82
2023/03/04 01:53:21;;;;;;;10.10;5.13;;;0.00;99.90;;;;;;5072980;28;20554;-87
2023/03/04 01:55:47;;;;;;;12.40;5.83;;;-0.10;99.90;;;;;;5073415;28;20174;-82
2023/03/04 01:58:13;;;;;;;9.60;6.07;;;-0.10;99.90;;;;;;5072443;28;20187;-82
2023/03/04 02:00:39;;;;;;;11.77;5.80;;;-0.20;99.90;;;;;;5071433;28;20210;-82
2023/03/04 02:03:10;;;;;;;11.70;4.40;;;-0.20;99.90;;;;;;5072915;28;20187;-82
2023/03/04 02:05:38;;;;;;;10.03;4.93;;;-0.20;99.90;;;;;;5072566;28;20182;-82
2023/03/04 02:08:04;;;;;;;6.80;4.27;;;-0.10;99.90;;;;;;5072680;28;20186;-81
2023/03/04 02:10:31;;;;;;;7.30;4.07;;;-0.10;99.90;;;;;;5072892;28;20175;-81
2023/03/04 02:12:58;;;;;;;6.40;4.27;;;-0.10;99.90;;;;;;5071446;28;20231;-81
2023/03/04 02:15:24;;;;;;;7.10;5.07;;;-0.10;99.90;;;;;;5072531;28;20240;-82
2023/03/04 02:17:50;;;;;;;5.50;4.03;;;0.00;99.90;;;;;;5072652;28;20183;-80
2023/03/04 02:20:30;;;;;;;7.70;3.23;;;0.00;99.90;;;;;;5072793;28;20247;-81
2023/03/04 02:23:32;;;;;;;3.27;2.53;;;-0.10;99.90;;;;;;5071409;28;20193;-80
2023/03/04 02:26:17;;;;;;;7.63;5.70;;;-0.10;99.90;;;;;;5072529;28;20171;-81
2023/03/04 02:28:43;;;;;;;9.47;5.00;;;1.30;99.90;;;;;;5070982;28;20711;-82
2023/03/04 02:31:34;;;;;;;10.67;5.70;;;-0.10;99.90;;;;;;5071736;28;20247;-81
2023/03/04 02:34:04;;;;;;;8.83;4.07;;;-0.10;99.90;;;;;;5072210;28;20950;-81
2023/03/04 02:36:30;;;;;;;18.03;5.63;;;-0.10;99.90;;;;;;5072346;28;20189;-81
2023/03/04 02:39:03;;;;;;;11.80;4.17;;;-0.10;99.90;;;;;;5072534;28;20244;-81
2023/03/04 02:41:29;;;;;;;6.73;3.23;;;-0.20;99.90;;;;;;5072249;28;20167;-82
2023/03/04 02:43:55;;;;;;;8.27;4.63;;;-0.10;99.90;;;;;;5071155;28;20193;-81
2023/03/04 02:46:22;;;;;;;7.10;4.40;;;0.10;99.90;;;;;;5071275;28;20187;-81
2023/03/04 02:48:49;;;;;;;10.70;5.83;;;-0.10;99.90;;;;;;5072198;28;20639;-81
2023/03/04 02:51:15;;;;;;;7.70;5.27;;;-0.10;99.90;;;;;;5070709;28;20175;-81
2023/03/04 02:53:41;;;;;;;10.70;4.50;;;-0.10;99.90;;;;;;5071791;28;20321;-82
2023/03/04 02:56:07;;;;;;;7.73;4.17;;;-0.10;99.90;;;;;;5070883;28;20675;-82
2023/03/04 02:58:32;;;;;;;8.67;5.00;;;-0.10;99.90;;;;;;5072023;28;20643;-82
2023/03/04 03:00:58;;;;;;;5.30;3.97;;;-0.10;99.90;;;;;;5071979;28;20183;-83
2023/03/04 03:03:24;;;;;;;8.70;4.30;;;-0.10;99.90;;;;;;5053833;28;20190;-82
2023/03/04 03:05:50;;;;;;;13.07;4.20;;;0.00;99.90;;;;;;5070945;28;20193;-82
2023/03/04 03:08:15;;;;;;;8.53;2.83;;;-0.10;99.90;;;;;;5071950;28;20186;-82
2023/03/04 03:10:41;;;;;;;6.67;3.83;;;0.00;99.90;;;;;;5070374;28;20179;-82
2023/03/04 03:13:07;;;;;;;7.67;4.23;;;0.50;99.90;;;;;;5060789;28;20235;-82
2023/03/04 03:15:32;;;;;;;10.07;4.70;;;0.00;99.90;;;;;;5051740;28;20230;-81
2023/03/04 03:17:58;;;;;;;6.43;3.60;;;0.00;99.90;;;;;;5017340;28;20279;-84
2023/03/04 03:20:24;;;;;;;7.53;4.33;;;0.00;99.90;;;;;;5051623;28;20187;-85
2023/03/04 03:22:49;;;;;;;5.93;3.37;;;0.00;99.90;;;;;;5051640;28;20186;-81
2023/03/04 03:25:15;;;;;;;5.47;3.90;;;0.00;99.90;;;;;;5051934;28;20179;-82
2023/03/04 03:27:41;;;;;;;6.00;4.67;;;0.00;99.90;;;;;;5051524;28;20180;-81
2023/03/04 03:30:10;;;;;;;9.27;3.77;;;-0.10;99.90;;;;;;5051999;28;20655;-81
2023/03/04 03:32:36;;;;;;;8.73;3.97;;;-0.10;99.90;;;;;;5051289;28;20203;-82
2023/03/04 03:35:02;;;;;;;8.57;4.03;;;-0.10;99.90;;;;;;5033545;28;20180;-81
2023/03/04 03:37:28;;;;;;;4.13;3.27;;;-0.10;99.90;;;;;;5033887;28;20191;-82
2023/03/04 03:39:54;;;;;;;4.07;3.50;;;0.00;99.90;;;;;;5051678;28;20259;-81
2023/03/04 03:42:19;;;;;;;10.57;5.63;;;-0.10;99.90;;;;;;5033695;28;20202;-84
2023/03/04 03:44:45;;;;;;;3.57;3.23;;;0.00;99.90;;;;;;5033661;28;20187;-82
2023/03/04 03:47:11;;;;;;;3.77;2.67;;;0.00;99.90;;;;;;5033504;28;20605;-81
2023/03/04 03:49:36;;;;;;;10.00;4.87;;;-0.10;99.90;;;;;;5051343;28;20188;-81
2023/03/04 03:52:03;;;;;;;5.27;3.63;;;0.00;99.90;;;;;;5053577;28;20183;-81
2023/03/04 03:54:28;;;;;;;4.27;3.87;;;-0.10;99.90;;;;;;5035175;28;20312;-82
2023/03/04 03:56:54;;;;;;;5.67;3.30;;;-0.10;99.90;;;;;;5051715;28;20211;-82
2023/03/04 03:59:20;;;;;;;7.47;4.67;;;-0.10;99.90;;;;;;5033801;28;20207;-81
2023/03/04 04:01:45;;;;;;;5.43;3.33;;;0.70;99.90;;;;;;5033818;28;20186;-82
2023/03/04 04:04:11;;;;;;;6.80;2.83;;;0.00;99.90;;;;;;5051164;28;20188;-82
2023/03/04 04:06:36;;;;;;;5.50;4.93;;;0.00;99.90;;;;;;5050906;28;20218;-82
2023/03/04 04:09:02;;;;;;;5.97;4.30;;;0.00;99.90;;;;;;5017254;28;20180;-83
2023/03/04 04:11:28;;;;;;;5.47;3.73;;;0.00;99.90;;;;;;5051175;28;20187;-83
2023/03/04 04:13:53;;;;;;;11.77;4.57;;;0.00;99.90;;;;;;5064343;28;20230;-82
2023/03/04 04:16:19;;;;;;;12.33;4.80;;;0.00;99.90;;;;;;5071263;28;20177;-82
2023/03/04 04:18:45;;;;;;;6.60;4.47;;;0.00;99.90;;;;;;5069735;28;20656;-82
2023/03/04 04:21:10;;;;;;;9.13;6.10;;;0.00;99.90;;;;;;5073248;28;20175;-82
2023/03/04 04:23:36;;;;;;;9.10;6.40;;;0.10;99.90;;;;;;5073603;28;20716;-83
2023/03/04 04:26:02;;;;;;;8.97;5.87;;;0.10;99.90;;;;;;5073841;28;20175;-82
2023/03/04 04:28:28;;;;;;;13.10;4.73;;;0.00;99.90;;;;;;5073644;28;20179;-82
2023/03/04 04:30:54;;;;;;;8.37;4.47;;;0.10;99.90;;;;;;5074950;28;20184;-81
2023/03/04 04:33:19;;;;;;;8.30;4.87;;;0.10;99.90;;;;;;5073158;28;20263;-82
2023/03/04 04:35:45;;;;;;;11.50;7.13;;;0.10;99.90;;;;;;5056253;28;20187;-83
2023/03/04 04:38:11;;;;;;;7.43;5.10;;;0.10;99.90;;;;;;5074780;28;20237;-81
2023/03/04 04:40:36;;;;;;;11.40;4.40;;;0.10;99.90;;;;;;5074409;28;20196;-82
2023/03/04 04:43:02;;;;;;;4.57;3.80;;;0.20;99.90;;;;;;5073227;28;20647;-81
2023/03/04 04:45:28;;;;;;;11.80;4.47;;;0.30;99.90;;;;;;5074233;28;20670;-83
2023/03/04 04:47:56;;;;;;;10.47;4.30;;;0.30;99.90;;;;;;5072566;28;20191;-84
2023/03/04 04:50:23;;;;;;;9.83;4.50;;;0.30;99.90;;;;;;5074069;28;20225;-83
2023/03/04 04:52:48;;;;;;;5.97;4.47;;;0.20;99.90;;;;;;5073869;28;20225;-82
2023/03/04 04:55:14;;;;;;;5.77;3.73;;;0.30;99.90;;;;;;5056179;28;20183;-82
2023/03/04 04:57:40;;;;;;;3.93;3.47;;;0.30;99.90;;;;;;5072804;28;20183;-82
2023/03/04 05:00:06;;;;;;;8.63;5.00;;;0.30;99.90;;;;;;5074052;28;20176;-82
2023/03/04 05:02:36;;;;;;;14.03;5.50;;;0.20;99.90;;;;;;5072692;28;20175;-86
2023/03/04 05:05:03;;;;;;;15.97;5.97;;;0.30;99.90;;;;;;5072588;28;20216;-81
2023/03/04 05:07:28;;;;;;;9.20;4.90;;;0.30;99.90;;;;;;5073211;28;20186;-81
2023/03/04 05:09:54;;;;;;;7.10;4.50;;;0.30;99.90;;;;;;5072117;28;20258;-82
2023/03/04 05:12:20;;;;;;;17.67;6.53;;;1.80;99.90;;;;;;5071689;28;20227;-82
2023/03/04 05:14:45;;;;;;;8.07;3.83;;;0.30;99.90;;;;;;5072160;28;20285;-82
2023/03/04 05:17:11;;;;;;;9.23;5.00;;;0.30;99.90;;;;;;5071899;28;20180;-82
2023/03/04 05:19:37;;;;;;;13.73;6.10;;;0.30;99.90;;;;;;5073208;28;20239;-82
2023/03/04 05:22:02;;;;;;;13.83;6.90;;;0.40;99.90;;;;;;5072159;28;20187;-82
2023/03/04 05:24:28;;;;;;;13.03;6.63;;;0.40;99.90;;;;;;5073396;28;20256;-81
2023/03/04 05:26:54;;;;;;;11.90;5.77;;;0.40;99.90;;;;;;5071600;28;20197;-81
2023/03/04 05:29:19;;;;;;;17.50;5.63;;;0.40;99.90;;;;;;5072899;28;20176;-81
2023/03/04 05:31:45;;;;;;;5.83;3.60;;;0.50;99.90;;;;;;5072710;28;20167;-81
2023/03/04 05:34:11;;;;;;;5.20;2.40;;;0.50;99.90;;;;;;5072256;28;20241;-82
2023/03/04 05:36:37;;;;;;;9.87;4.60;;;0.50;99.90;;;;;;5055279;28;20213;-81
2023/03/04 05:39:02;;;;;;;12.53;5.17;;;0.40;99.90;;;;;;5072082;28;20641;-81
2023/03/04 05:41:28;;;;;;;9.23;6.13;;;0.40;99.90;;;;;;5073751;28;20172;-81
2023/03/04 05:43:55;;;;;;;6.63;4.17;;;0.40;99.90;;;;;;5073144;28;20713;-81
2023/03/04 05:46:24;;;;;;;8.13;4.07;;;0.40;99.90;;;;;;5073068;28;20176;-81
2023/03/04 05:48:51;;;;;;;12.37;5.13;;;0.40;99.90;;;;;;5072909;28;20178;-81
2023/03/04 05:51:17;;;;;;;4.03;3.27;;;0.30;99.90;;;;;;5073074;28;20632;-81
2023/03/04 05:53:43;;;;;;;9.57;3.77;;;1.60;99.90;;;;;;5072707;28;20231;-80
2023/03/04 05:56:14;;;;;;;8.00;4.63;;;0.50;99.90;;;;;;5072020;28;20180;-81
2023/03/04 05:58:40;;;;;;;9.73;3.77;;;0.50;99.90;;;;;;5072949;28;20174;-81
2023/03/04 06:01:06;;;;;;;10.80;4.70;;;0.60;99.90;;;;;;5054683;28;20175;-82
2023/03/04 06:03:33;;;;;;;7.03;3.83;;;0.60;99.90;;;;;;5048989;28;20184;-83
2023/03/04 06:05:59;;;;;;;7.60;4.80;;;0.50;99.90;;;;;;5065708;28;20184;-81
2023/03/04 06:08:26;;;;;;;8.40;4.47;;;0.50;99.90;;;;;;5069347;28;20704;-82
2023/03/04 06:10:53;;;;;;;22.27;4.60;;;0.50;99.90;;;;;;5062898;28;20180;-84
2023/03/04 06:13:19;;;;;;;7.53;3.73;;;0.50;99.90;;;;;;5065336;28;20237;-81
2023/03/04 06:15:45;;;;;;;8.53;4.93;;;0.50;99.90;;;;;;5070315;28;20254;-81
2023/03/04 06:18:11;;;;;;;4.00;2.87;;;0.60;99.90;;;;;;5034641;28;20832;-82
2023/03/04 06:20:37;;;;;;;4.70;3.87;;;0.60;99.90;;;;;;5061985;28;20724;-82
2023/03/04 06:23:03;;;;;;;7.33;3.47;;;0.60;99.90;;;;;;5061567;28;20237;-83
2023/03/04 06:25:30;;;;;;;10.37;5.23;;;0.50;99.90;;;;;;5062009;28;20270;-84
2023/03/04 06:27:55;;;;;;;7.07;3.33;;;0.50;99.90;;;;;;5066368;28;20179;-82
2023/03/04 06:30:22;;;;;;;5.80;4.20;;;0.60;99.90;;;;;;5054787;28;20175;-83
2023/03/04 06:32:48;;;;;;;10.97;4.53;;;0.60;99.90;;;;;;5051614;28;20195;-83
2023/03/04 06:35:15;;;;;;;7.80;3.93;;;0.60;99.90;;;;;;5049211;28;20656;-83
2023/03/04 06:37:42;;;;;;;18.83;4.67;;;0.70;99.90;;;;;;5069319;28;20179;-84
2023/03/04 06:40:09;;;;;;;7.87;4.33;;;0.70;99.90;;;;;;5069386;28;20213;-84
2023/03/04 06:42:35;;;;;;;3.17;2.60;;;0.70;99.90;;;;;;5068556;28;20180;-83
2023/03/04 06:45:01;;;;;;;6.57;4.20;;;0.60;99.90;;;;;;5068090;28;20961;-84
2023/03/04 06:47:27;;;;;;;12.13;5.40;;;0.70;99.90;;;;;;5055839;28;20187;-84
2023/03/04 06:49:53;;;;;;;6.03;3.47;;;0.70;99.90;;;;;;5067536;28;20271;-84
2023/03/04 06:52:19;;;;;;;12.07;5.07;;;0.70;99.90;;;;;;5025433;28;20281;-84
2023/03/04 06:54:45;;;;;;;15.13;5.27;;;0.70;99.90;;;;;;5069033;28;20219;-85
2023/03/04 06:57:12;;;;;;;8.00;3.80;;;0.70;99.90;;;;;;5061546;28;20287;-84
2023/03/04 06:59:38;;;;;;;9.13;4.53;;;0.70;99.90;;;;;;5052162;28;20328;-83
2023/03/04 07:02:04;;;;;;;4.70;3.40;;;0.70;99.90;;;;;;5054986;28;20214;-83
2023/03/04 07:04:29;;;;;;;6.87;5.17;;;0.70;99.90;;;;;;5049002;28;21336;-83
2023/03/04 07:06:55;;;;;;;8.57;3.13;;;0.80;99.90;;;;;;5066619;28;20186;-83
2023/03/04 07:09:21;;;;;;;16.67;5.87;;;0.80;99.90;;;;;;5069539;28;20179;-83
2023/03/04 07:11:47;;;;;;;9.57;5.57;;;0.80;99.90;;;;;;5069733;28;20240;-82
2023/03/04 07:14:13;;;;;;;8.67;4.30;;;0.80;99.90;;;;;;5038407;28;20271;-82
2023/03/04 07:16:39;;;;;;;12.33;4.90;;;0.80;99.90;;;;;;5050452;28;20213;-82
2023/03/04 07:19:07;;;;;;;8.97;4.57;;;0.80;99.90;;;;;;5050767;28;20184;-81
2023/03/04 07:21:33;;;;;;;10.60;3.90;;;0.90;99.90;;;;;;5048635;28;20656;-82
2023/03/04 07:23:58;;;;;;;11.70;5.03;;;1.40;99.90;;;;;;5030799;28;20298;-83
2023/03/04 07:26:24;;;;;;;16.17;4.57;;;0.90;99.90;;;;;;5033814;28;20544;-83
2023/03/04 07:28:51;;;;;;;12.83;3.93;;;0.90;99.90;;;;;;5033615;28;20648;-84
2023/03/04 07:31:28;;;;;;;7.97;4.40;;;0.80;99.90;;;;;;5033772;28;20186;-82
2023/03/04 07:33:56;;;;;;;11.33;4.50;;;0.90;99.90;;;;;;5031553;28;20214;-83
2023/03/04 07:36:21;;;;;;;3.10;2.67;;;0.90;99.90;;;;;;5034517;28;20188;-83
2023/03/04 07:38:49;;;;;;;6.30;4.07;;;0.90;99.90;;;;;;5034498;28;20229;-82
2023/03/04 07:41:15;;;;;;;7.13;5.83;;;0.90;99.90;;;;;;5052151;28;20176;-82
2023/03/04 07:43:41;;;;;;;6.53;3.80;;;1.00;99.90;;;;;;5034445;28;20242;-82
2023/03/04 07:46:07;;;;;;;11.67;6.27;;;0.90;99.90;;;;;;5034651;28;20187;-83
2023/03/04 07:48:33;;;;;;;10.00;4.07;;;1.00;99.90;;;;;;5051752;28;20586;-82
2023/03/04 07:51:06;;;;;;;4.07;3.07;;;1.00;99.90;;;;;;5033642;28;20191;-81
2023/03/04 07:53:33;;;;;;;4.97;3.43;;;1.00;99.90;;;;;;5051581;28;20214;-83
2023/03/04 07:55:58;;;;;;;9.77;3.60;;;1.00;99.90;;;;;;5024722;28;20699;-80
2023/03/04 07:58:24;;;;;;;15.83;5.93;;;1.00;99.90;;;;;;5038013;28;20184;-82
2023/03/04 08:00:50;;;;;;;6.10;3.77;;;1.00;99.90;;;;;;5055594;28;20210;-82
2023/03/04 08:03:16;;;;;;;6.10;4.03;;;1.00;99.90;;;;;;5055379;28;20225;-81
2023/03/04 08:05:42;;;;;;;4.97;3.47;;;1.00;99.90;;;;;;5021204;28;20233;-81
2023/03/04 08:08:08;;;;;;;10.20;4.07;;;1.00;99.90;;;;;;5037420;28;20190;-81
2023/03/04 08:10:35;;;;;;;5.37;3.37;;;1.00;99.90;;;;;;5037126;28;20670;-82
2023/03/04 08:13:00;;;;;;;10.47;4.73;;;1.00;99.90;;;;;;5040964;28;20228;-82
2023/03/04 08:15:26;;;;;;;9.80;4.33;;;1.00;99.90;;;;;;5072866;28;20228;-82
2023/03/04 08:17:52;;;;;;;9.90;4.27;;;1.10;99.90;;;;;;5072391;28;20191;-82
2023/03/04 08:20:18;;;;;;;4.00;3.33;;;1.00;99.90;;;;;;5072046;28;20190;-81
2023/03/04 08:22:44;;;;;;;9.73;5.27;;;1.00;99.90;;;;;;5073198;28;20191;-82
2023/03/04 08:25:10;;;;;;;10.37;5.40;;;1.10;99.90;;;;;;5074875;28;20631;-83
2023/03/04 08:27:36;;;;;;;7.73;4.30;;;1.00;99.90;;;;;;5056864;28;20269;-82
2023/03/04 08:30:03;;;;;;;7.33;4.10;;;1.10;99.90;;;;;;5074292;28;20272;-84
2023/03/04 08:32:29;;;;;;;9.53;5.13;;;1.10;99.90;;;;;;5071529;28;20229;-81
2023/03/04 08:34:55;;;;;;;5.83;3.00;;;1.10;99.90;;;;;;5052769;28;20184;-82
2023/03/04 08:37:21;;;;;;;12.50;5.03;;;1.00;99.90;;;;;;5069815;28;20181;-82
2023/03/04 08:39:47;;;;;;;15.33;7.53;;;1.10;99.90;;;;;;5054141;28;20625;-84
2023/03/04 08:42:13;;;;;;;6.70;3.63;;;2.50;99.90;;;;;;5054701;28;20172;-81
2023/03/04 08:44:38;;;;;;;3.20;2.50;;;1.10;99.90;;;;;;5054269;28;20246;-83
2023/03/04 08:47:08;;;;;;;10.90;3.47;;;1.00;99.90;;;;;;5036311;28;20179;-82
2023/03/04 08:49:33;;;;;;;11.77;5.57;;;1.10;99.90;;;;;;5052768;28;20620;-82
2023/03/04 08:51:59;;;;;;;6.93;3.77;;;1.10;99.90;;;;;;5071794;28;20274;-83
2023/03/04 08:54:24;;;;;;;5.77;3.17;;;1.10;99.90;;;;;;5073300;28;20318;-82
2023/03/04 08:56:50;;;;;;;9.50;3.63;;;1.10;99.90;;;;;;5073237;28;20260;-83
2023/03/04 08:59:16;;;;;;;7.93;4.47;;;1.10;99.90;;;;;;5073094;28;20191;-84
2023/03/04 09:01:41;;;;;;;9.90;4.30;;;1.10;99.90;;;;;;5072084;28;20221;-84
2023/03/04 09:04:07;;;;;;;7.07;4.23;;;1.20;99.90;;;;;;5074154;28;20202;-84
2023/03/04 09:06:33;;;;;;;6.20;3.70;;;1.10;99.90;;;;;;5071768;28;20211;-82
2023/03/04 09:08:58;;;;;;;4.63;3.07;;;1.10;99.90;;;;;;5071996;28;20317;-83
2023/03/04 09:11:24;;;;;;;6.53;3.00;;;1.10;99.90;;;;;;5055241;28;20679;-82
2023/03/04 09:13:50;;;;;;;7.43;4.93;;;1.20;99.90;;;;;;5052313;28;20714;-83
2023/03/04 09:16:16;;;;;;;5.57;2.80;;;1.20;99.90;;;;;;5074571;28;20231;-82
2023/03/04 09:18:42;;;;;;;5.60;4.70;;;1.20;99.90;;;;;;5073781;28;20270;-82
2023/03/04 09:21:08;;;;;;;12.50;5.67;;;1.30;99.90;;;;;;5072773;28;20191;-83
2023/03/04 09:23:35;;;;;;;3.57;3.13;;;1.30;99.90;;;;;;5073681;28;20183;-83
2023/03/04 09:26:01;;;;;;;5.67;3.93;;;1.30;99.90;;;;;;5073645;28;20180;-82
2023/03/04 09:28:27;;;;;;;8.47;3.50;;;1.30;99.90;;;;;;5074249;28;20711;-82
2023/03/04 09:30:52;;;;;;;5.63;3.17;;;1.30;99.90;;;;;;5072570;28;20207;-82
2023/03/04 09:33:18;;;;;;;8.13;4.37;;;1.30;99.90;;;;;;5072359;28;20697;-82
2023/03/04 09:35:44;;;;;;;4.00;3.47;;;1.30;99.90;;;;;;5044932;28;20180;-82
2023/03/04 09:38:09;;;;;;;6.47;3.77;;;1.30;99.90;;;;;;5055808;28;20357;-82
2023/03/04 09:40:45;;;;;;;5.47;4.53;;;1.30;99.90;;;;;;5055796;28;20179;-82
2023/03/04 09:43:23;;;;;;;6.13;4.53;;;1.30;99.90;;;;;;5062234;28;20179;-83
2023/03/04 09:45:54;;;;;;;9.90;3.47;;;1.40;99.90;;;;;;5071333;28;20217;-83
2023/03/04 09:48:23;;;;;;;3.77;3.00;;;1.40;99.90;;;;;;5073383;28;20192;-82
2023/03/04 09:51:18;;;;;;;9.70;5.17;;;1.40;99.90;;;;;;5073316;28;20211;-83
2023/03/04 09:54:10;;;;;;;6.13;3.03;;;1.40;99.90;;;;;;5057724;28;20715;-82
2023/03/04 09:56:38;;;;;;;6.83;5.03;;;1.40;99.90;;;;;;5054841;28;20189;-82
2023/03/04 09:59:15;;;;;;;8.60;3.23;;;1.40;99.90;;;;;;5073090;28;20175;-83
2023/03/04 10:01:53;;;;;;;8.57;4.10;;;1.40;99.90;;;;;;5073432;28;20278;-85
2023/03/04 10:04:35;;;;;;;7.37;4.73;;;1.50;99.90;;;;;;5073583;28;20665;-82
2023/03/04 10:07:03;;;;;;;7.47;4.10;;;1.50;99.90;;;;;;5071955;28;20203;-83
2023/03/04 10:09:42;;;;;;;5.07;3.13;;;1.40;99.90;;;;;;5072081;28;20266;-82
2023/03/04 10:12:13;;;;;;;13.23;6.37;;;1.50;99.90;;;;;;5069594;28;20183;-84
2023/03/04 10:14:46;;;;;;;9.80;4.80;;;1.50;99.90;;;;;;5051989;28;20208;-83
2023/03/04 10:17:37;;;;;;;6.57;4.17;;;1.50;99.90;;;;;;5049604;28;20180;-83
2023/03/04 10:20:14;;;;;;;7.50;5.00;;;1.50;99.90;;;;;;5032906;28;20253;-83
2023/03/04 10:22:51;;;;;;;3.07;2.77;;;1.50;99.90;;;;;;5050647;28;20194;-82
2023/03/04 10:25:23;;;;;;;6.63;4.13;;;1.50;99.90;;;;;;5049964;28;20184;-83
2023/03/04 10:28:03;;;;;;;4.67;2.80;;;1.50;99.90;;;;;;5051876;28;20172;-82
2023/03/04 10:30:43;;;;;;;4.00;3.53;;;1.50;99.90;;;;;;5051020;28;20183;-84
2023/03/04 10:33:21;;;;;;;5.23;3.73;;;1.60;99.90;;;;;;5051627;28;20275;-83
2023/03/04 10:36:01;;;;;;;6.37;4.43;;;1.50;99.90;;;;;;5051256;28;20195;-83
2023/03/04 10:38:30;;;;;;;6.87;3.93;;;1.60;99.90;;;;;;5051316;28;20183;-82
2023/03/04 10:40:57;;;;;;;4.10;3.40;;;1.60;99.90;;;;;;5037780;28;20729;-82
2023/03/04 10:43:23;;;;;;;9.60;4.97;;;1.50;99.90;;;;;;5033064;28;20238;-83
2023/03/04 10:45:57;;;;;;;4.63;4.13;;;1.50;99.90;;;;;;5050736;28;20585;-81
2023/03/04 10:48:28;;;;;;;12.83;6.93;;;1.50;99.90;;;;;;5051788;28;20165;-83
2023/03/04 10:51:09;;;;;;;3.90;3.43;;;1.60;99.90;;;;;;5048444;28;20182;-81
2023/03/04 10:53:41;;;;;;;12.50;6.43;;;1.50;99.90;;;;;;5050520;28;20207;-82
2023/03/04 10:56:29;;;;;;;8.77;4.43;;;-0.10;99.90;;;;;;5031427;28;20184;-83
2023/03/04 10:59:30;;;;;;;6.27;4.07;;;1.60;99.90;;;;;;5050368;28;20176;-83
2023/03/04 11:01:57;;;;;;;8.90;4.33;;;1.50;99.90;;;;;;5032072;28;20271;-83
2023/03/04 11:04:26;;;;;;;6.93;4.57;;;1.50;99.90;;;;;;5033046;28;20590;-83
2023/03/04 11:06:53;;;;;;;16.10;6.53;;;1.50;99.90;;;;;;5009070;28;20186;-82
2023/03/04 11:09:27;;;;;;;6.47;3.77;;;1.60;99.90;;;;;;5051165;28;20191;-83
2023/03/04 11:12:01;;;;;;;14.60;7.33;;;1.60;99.90;;;;;;5049167;28;20180;-83
2023/03/04 11:14:28;;;;;;;7.90;5.20;;;1.60;99.90;;;;;;5048453;28;20211;-82
2023/03/04 11:16:57;;;;;;;9.23;4.10;;;1.60;99.90;;;;;;5050415;28;20179;-83
2023/03/04 11:19:37;;;;;;;9.20;4.73;;;1.60;99.90;;;;;;5032734;28;20172;-82
2023/03/04 11:22:04;;;;;;;8.07;4.23;;;1.60;99.90;;;;;;5051340;28;20264;-83
2023/03/04 11:24:32;;;;;;;12.87;4.97;;;1.60;99.90;;;;;;5051585;28;20191;-83
2023/03/04 11:27:12;;;;;;;9.53;4.87;;;1.70;99.90;;;;;;5051133;28;20617;-83
2023/03/04 11:29:47;;;;;;;4.33;2.83;;;1.70;99.90;;;;;;5051323;28;20171;-83
2023/03/04 11:32:24;;;;;;;9.57;3.90;;;1.60;99.90;;;;;;5053767;28;20179;-83
2023/03/04 11:35:27;;;;;;;4.90;2.87;;;1.70;99.90;;;;;;5052886;28;20222;-83
2023/03/04 11:38:13;;;;;;;6.73;4.47;;;1.70;99.90;;;;;;5053612;28;20263;-82
2023/03/04 11:40:50;;;;;;;7.80;4.60;;;1.70;99.90;;;;;;5053337;28;20221;-82
2023/03/04 11:43:22;;;;;;;13.40;6.47;;;1.70;99.90;;;;;;5037969;28;20185;-82
2023/03/04 11:45:58;;;;;;;11.67;3.97;;;1.70;99.90;;;;;;5054147;28;20176;-83
2023/03/04 11:49:01;;;;;;;10.37;5.50;;;1.80;99.90;;;;;;5053321;28;20206;-87
2023/03/04 11:51:52;;;;;;;9.57;5.90;;;1.70;99.90;;;;;;5032884;28;20528;-81
2023/03/04 11:54:58;;;;;;;12.20;6.23;;;1.70;99.90;;;;;;5054877;28;20216;-83
2023/03/04 11:57:49;;;;;;;6.20;3.83;;;1.70;99.90;;;;;;4955074;29;20180;-82
2023/03/04 12:00:30;;;;;;;14.50;5.07;;;1.70;99.90;;;;;;4953325;29;20546;-82
2023/03/04 12:03:13;;;;;;;9.30;4.60;;;1.70;99.90;;;;;;5025855;28;20194;-82
2023/03/04 12:05:50;;;;;;;13.63;4.63;;;1.70;99.90;;;;;;5037138;28;20190;-83
2023/03/04 12:11:56;;;;;;;5.70;3.97;;;1.80;99.90;;;;;;5264194;23;20277;-82
2023/03/04 12:14:36;;;;;;;4.20;3.37;;;1.80;99.90;;;;;;5037876;28;20213;-82
2023/03/04 12:17:25;;;;;;;9.47;4.40;;;1.80;99.90;;;;;;5056328;28;20190;-82
2023/03/04 12:20:26;;;;;;;7.60;3.87;;;1.80;99.90;;;;;;5038032;28;20180;-82
2023/03/04 12:23:10;;;;;;;6.53;3.27;;;1.80;99.90;;;;;;5056256;28;20189;-82
2023/03/04 12:25:45;;;;;;;9.17;3.83;;;1.90;99.90;;;;;;5055748;28;20172;-83
2023/03/04 12:28:23;;;;;;;9.13;4.93;;;1.90;99.90;;;;;;5037759;28;20190;-82
2023/03/04 12:30:51;;;;;;;4.40;2.37;;;2.00;99.90;;;;;;5055576;28;20179;-82
2023/03/04 12:33:51;;;;;;;16.47;5.50;;;1.90;99.90;;;;;;5037334;28;20214;-82
2023/03/04 12:36:39;;;;;;;6.77;4.37;;;2.00;99.90;;;;;;5055206;28;20172;-84
2023/03/04 12:39:25;;;;;;;10.00;4.03;;;2.00;99.90;;;;;;5055303;28;20172;-83
2023/03/04 12:42:15;;;;;;;11.40;5.60;;;1.90;99.90;;;;;;5036666;28;20174;-82
2023/03/04 12:45:25;;;;;;;5.50;3.67;;;2.00;99.90;;;;;;5054679;28;20180;-82
2023/03/04 12:48:15;;;;;;;5.03;3.53;;;2.00;99.90;;;;;;5017247;28;20189;-83
2023/03/04 12:51:14;;;;;;;8.47;4.63;;;2.00;99.90;;;;;;5055117;28;20176;-83
2023/03/04 12:53:53;;;;;;;10.13;5.07;;;2.10;99.90;;;;;;5050994;28;20276;-82
2023/03/04 12:56:35;;;;;;;7.10;4.03;;;2.10;99.90;;;;;;5037028;28;20176;-83
2023/03/04 12:59:01;;;;;;;6.97;4.30;;;2.00;99.90;;;;;;5055500;28;20178;-83
2023/03/04 13:01:48;;;;;;;12.87;4.30;;;2.00;99.90;;;;;;5040951;28;20185;-83
2023/03/04 13:04:16;;;;;;;8.00;3.23;;;2.10;99.90;;;;;;5035151;28;20183;-83
2023/03/04 13:06:54;;;;;;;10.53;5.53;;;2.10;99.90;;;;;;5034866;28;20316;-83
2023/03/04 13:09:32;;;;;;;5.30;3.27;;;2.10;99.90;;;;;;5035317;28;20252;-82